Time;durP1;ratioP1;P1;durP2;ratioP2;P2;SDS_P1;SDS_P2;PMS_P1;PMS_P2;Temp;Humidity;BMP_temperature;BMP_pressure;BME280_temperature;BME280_humidity;BME280_pressure;Samples;Min_cycle;Max_cycle;Signal;HPM_P1;HPM_P2
2022/10/27 00:01:29;;;;;;;11.38;6.03;;;13.60;99.90;;;;;;5089639;28;20135;-53
2022/10/27 00:03:55;;;;;;;12.18;6.55;;;13.60;99.90;;;;;;5087488;28;20111;-51
2022/10/27 00:06:21;;;;;;;9.70;6.15;;;13.50;99.90;;;;;;5089781;28;20397;-52
2022/10/27 00:08:49;;;;;;;12.98;6.38;;;13.50;99.90;;;;;;5089809;28;20044;-49
2022/10/27 00:11:14;;;;;;;;;;;13.50;99.90;;;;;;5089664;28;20484;-50
2022/10/27 00:13:40;;;;;;;12.27;6.65;;;13.40;99.90;;;;;;5087830;28;19966;-48
2022/10/27 00:16:10;;;;;;;9.85;6.07;;;13.40;99.90;;;;;;5090457;28;20043;-51
2022/10/27 00:18:36;;;;;;;10.52;6.68;;;13.40;99.90;;;;;;5085514;28;20040;-53
2022/10/27 00:21:06;;;;;;;14.18;7.63;;;13.30;99.90;;;;;;5086717;28;20040;-49
2022/10/27 00:23:32;;;;;;;13.25;6.95;;;13.40;99.90;;;;;;5085528;28;20569;-50
2022/10/27 00:25:59;;;;;;;15.52;7.00;;;13.40;99.90;;;;;;5085014;28;20035;-51
2022/10/27 00:28:25;;;;;;;10.73;6.65;;;13.30;99.90;;;;;;5087186;28;20089;-49
2022/10/27 00:31:05;;;;;;;13.55;6.75;;;13.30;99.90;;;;;;5085934;28;20037;-49
2022/10/27 00:33:31;;;;;;;11.30;6.63;;;13.40;99.90;;;;;;5083697;28;20059;-50
2022/10/27 00:36:03;;;;;;;13.90;7.63;;;13.40;99.90;;;;;;5086700;28;20452;-49
2022/10/27 00:38:28;;;;;;;11.98;7.10;;;13.50;99.90;;;;;;5083525;28;20058;-51
2022/10/27 00:40:54;;;;;;;10.23;7.10;;;13.50;99.90;;;;;;5086141;28;20470;-51
2022/10/27 00:43:37;;;;;;;12.02;7.18;;;13.50;99.90;;;;;;5086253;28;20036;-50
2022/10/27 00:46:22;;;;;;;10.52;6.82;;;13.60;99.90;;;;;;5086741;28;20080;-50
2022/10/27 00:48:50;;;;;;;11.63;7.13;;;13.70;99.90;;;;;;5101906;28;20122;-52
2022/10/27 00:51:18;;;;;;;11.32;7.00;;;13.70;99.90;;;;;;5085377;28;20040;-53
2022/10/27 00:53:45;;;;;;;14.55;7.88;;;13.80;99.90;;;;;;5089219;28;20067;-52
2022/10/27 00:56:11;;;;;;;9.23;6.95;;;13.80;99.90;;;;;;5086431;28;20044;-50
2022/10/27 00:58:38;;;;;;;13.70;7.20;;;13.80;99.90;;;;;;5089420;28;20039;-53
2022/10/27 01:01:04;;;;;;;11.35;6.90;;;13.90;99.90;;;;;;5086648;28;20078;-51
2022/10/27 01:03:31;;;;;;;11.55;7.03;;;13.90;99.90;;;;;;5085947;28;20032;-53
2022/10/27 01:05:57;;;;;;;13.15;6.78;;;13.90;99.90;;;;;;5084256;28;20123;-52
2022/10/27 01:08:23;;;;;;;13.48;6.68;;;13.90;99.90;;;;;;5085754;28;20048;-50
2022/10/27 01:10:50;;;;;;;13.35;6.47;;;13.90;99.90;;;;;;5084411;28;20056;-52
2022/10/27 01:13:17;;;;;;;12.15;6.93;;;14.00;99.90;;;;;;5086682;28;20051;-49
2022/10/27 01:16:05;;;;;;;16.63;6.40;;;14.00;99.90;;;;;;5084802;28;20047;-50
2022/10/27 01:18:49;;;;;;;11.90;6.72;;;14.00;99.90;;;;;;5085703;28;20036;-53
2022/10/27 01:21:26;;;;;;;13.48;7.18;;;14.00;99.90;;;;;;5083929;28;20036;-49
2022/10/27 01:24:22;;;;;;;9.45;6.82;;;14.10;99.90;;;;;;5083841;28;20264;-50
2022/10/27 01:26:56;;;;;;;8.60;6.53;;;14.00;99.90;;;;;;5085831;28;20410;-50
2022/10/27 01:30:21;;;;;;;11.60;6.85;;;14.10;99.90;;;;;;5085570;28;20664;-53
2022/10/27 01:33:15;;;;;;;9.60;7.18;;;14.10;99.90;;;;;;5048104;28;20037;-52
2022/10/27 01:35:52;;;;;;;12.07;6.72;;;14.20;99.90;;;;;;5044114;28;20131;-49
2022/10/27 01:38:28;;;;;;;14.53;7.00;;;14.10;99.90;;;;;;5043070;28;20541;-49
2022/10/27 01:41:11;;;;;;;10.70;7.07;;;14.10;99.90;;;;;;5047128;28;20056;-50
2022/10/27 01:43:37;;;;;;;15.95;7.18;;;14.20;99.90;;;;;;5048185;28;20041;-49
2022/10/27 01:46:07;;;;;;;10.50;7.28;;;14.20;99.90;;;;;;5030433;28;20605;-52
2022/10/27 01:48:35;;;;;;;13.13;7.50;;;14.20;99.90;;;;;;5032913;28;20458;-51
2022/10/27 01:51:01;;;;;;;12.63;7.15;;;14.30;99.90;;;;;;5048229;28;20472;-50
2022/10/27 01:53:28;;;;;;;12.45;7.60;;;14.30;99.90;;;;;;5047828;28;20048;-51
2022/10/27 01:56:02;;;;;;;11.98;7.32;;;14.30;99.90;;;;;;5026253;28;20061;-50
2022/10/27 01:58:52;;;;;;;9.73;6.38;;;14.30;99.90;;;;;;5044895;28;20118;-52
2022/10/27 02:01:46;;;;;;;11.32;6.65;;;14.40;99.90;;;;;;5050995;28;20080;-53
2022/10/27 02:04:28;;;;;;;8.93;7.03;;;14.40;99.90;;;;;;5043543;28;20057;-49
2022/10/27 02:07:29;;;;;;;11.23;6.88;;;14.40;99.90;;;;;;5056465;28;20097;-50
2022/10/27 02:10:02;;;;;;;10.98;6.70;;;14.50;99.90;;;;;;5083700;28;20127;-52
2022/10/27 02:12:31;;;;;;;10.15;6.68;;;14.40;99.90;;;;;;5083160;28;20040;-50
2022/10/27 02:14:59;;;;;;;10.95;7.50;;;14.50;99.90;;;;;;5083027;28;20055;-50
2022/10/27 02:17:30;;;;;;;10.23;6.55;;;14.40;99.90;;;;;;5084590;28;20040;-50
2022/10/27 02:19:58;;;;;;;10.50;7.25;;;14.40;99.90;;;;;;5084147;28;20078;-49
2022/10/27 02:22:28;;;;;;;11.25;6.32;;;14.30;99.90;;;;;;5066226;28;20445;-52
2022/10/27 02:24:54;;;;;;;9.13;7.20;;;14.30;99.90;;;;;;5081607;28;20093;-53
2022/10/27 02:27:35;;;;;;;12.98;7.22;;;14.30;99.90;;;;;;5085938;28;20044;-49
2022/10/27 02:30:02;;;;;;;10.23;7.10;;;14.20;99.90;;;;;;5083285;28;20087;-50
2022/10/27 02:32:28;;;;;;;10.50;7.47;;;14.20;99.90;;;;;;5084516;28;20032;-54
2022/10/27 02:34:55;;;;;;;10.45;6.95;;;14.20;99.90;;;;;;5080941;28;20127;-52
2022/10/27 02:37:29;;;;;;;10.30;6.97;;;14.20;99.90;;;;;;5085548;28;20056;-50
2022/10/27 02:39:55;;;;;;;11.55;7.03;;;14.10;99.90;;;;;;5082195;28;20045;-51
2022/10/27 02:42:20;;;;;;;9.30;7.00;;;14.10;99.90;;;;;;5086245;28;20031;-51
2022/10/27 02:44:46;;;;;;;14.77;7.38;;;14.10;99.90;;;;;;5087494;28;20080;-49
2022/10/27 02:47:12;;;;;;;10.52;7.30;;;14.00;99.90;;;;;;5089140;28;20036;-49
2022/10/27 02:49:37;;;;;;;10.15;6.95;;;13.90;99.90;;;;;;5087375;28;20488;-49
2022/10/27 02:52:06;;;;;;;11.30;7.63;;;13.90;99.90;;;;;;5087067;28;20052;-49
2022/10/27 02:54:31;;;;;;;13.18;7.30;;;13.80;99.90;;;;;;5089388;28;20365;-51
2022/10/27 02:56:58;;;;;;;14.75;8.00;;;13.80;99.90;;;;;;5088349;28;20106;-53
2022/10/27 02:59:24;;;;;;;16.98;7.78;;;13.70;99.90;;;;;;5089318;28;20043;-53
2022/10/27 03:01:49;;;;;;;11.35;7.72;;;13.70;99.90;;;;;;5082614;28;20036;-50
2022/10/27 03:04:15;;;;;;;11.35;8.18;;;13.70;99.90;;;;;;5087626;28;20032;-53
2022/10/27 03:06:41;;;;;;;11.70;8.13;;;13.60;99.90;;;;;;5088487;28;20477;-51
2022/10/27 03:09:06;;;;;;;9.00;7.72;;;13.60;99.90;;;;;;5088354;28;20044;-52
2022/10/27 03:11:32;;;;;;;9.25;7.65;;;13.50;99.90;;;;;;5086438;28;20192;-53
2022/10/27 03:13:57;;;;;;;15.20;8.20;;;13.50;99.90;;;;;;5086664;28;20112;-50
2022/10/27 03:16:23;;;;;;;10.85;8.38;;;13.50;99.90;;;;;;5087194;28;20381;-54
2022/10/27 03:18:49;;;;;;;9.65;8.65;;;13.40;99.90;;;;;;5085590;28;20679;-50
2022/10/27 03:21:15;;;;;;;14.63;8.45;;;13.40;99.90;;;;;;5083862;28;20044;-52
2022/10/27 03:23:40;;;;;;;12.07;8.85;;;13.30;99.90;;;;;;5089007;28;20574;-52
2022/10/27 03:26:08;;;;;;;12.27;8.77;;;13.40;99.90;;;;;;5088281;28;20389;-51
2022/10/27 03:28:36;;;;;;;13.98;9.30;;;13.30;99.90;;;;;;5088313;28;20051;-49
2022/10/27 03:31:03;;;;;;;16.80;9.50;;;13.30;99.90;;;;;;5086359;28;20040;-49
2022/10/27 03:33:29;;;;;;;10.60;8.70;;;13.20;99.90;;;;;;5087802;28;20044;-49
2022/10/27 03:35:55;;;;;;;11.73;8.98;;;13.20;99.90;;;;;;5088962;28;20055;-51
2022/10/27 03:38:21;;;;;;;13.60;8.90;;;13.20;99.90;;;;;;5085131;28;20040;-49
2022/10/27 03:40:46;;;;;;;11.60;8.88;;;13.20;99.90;;;;;;5086427;28;20043;-53
2022/10/27 03:43:12;;;;;;;13.25;9.60;;;13.20;99.90;;;;;;5085505;28;20040;-51
2022/10/27 03:45:38;;;;;;;15.15;9.93;;;13.20;99.90;;;;;;5086648;28;20082;-49
2022/10/27 03:48:06;;;;;;;11.85;9.57;;;13.20;99.90;;;;;;5087229;28;20514;-50
2022/10/27 03:50:32;;;;;;;13.98;10.13;;;13.20;99.90;;;;;;5086219;28;20238;-53
2022/10/27 03:52:58;;;;;;;11.05;9.43;;;13.20;99.90;;;;;;5087253;28;20036;-50
2022/10/27 03:55:24;;;;;;;14.90;10.02;;;13.20;99.90;;;;;;5089023;28;20456;-50
2022/10/27 03:57:50;;;;;;;13.25;9.95;;;13.20;99.90;;;;;;5085912;28;20101;-53
2022/10/27 04:00:16;;;;;;;12.88;9.95;;;13.10;99.90;;;;;;5084731;28;20043;-50
2022/10/27 04:02:42;;;;;;;16.05;10.20;;;13.10;99.90;;;;;;5087905;28;20036;-49
2022/10/27 04:05:08;;;;;;;12.82;9.60;;;13.10;99.90;;;;;;5088368;28;20039;-52
2022/10/27 04:07:34;;;;;;;12.10;9.80;;;13.10;99.90;;;;;;5087745;28;20036;-51
2022/10/27 04:09:59;;;;;;;12.52;10.18;;;13.10;99.90;;;;;;5085459;28;21379;-53
2022/10/27 04:12:25;;;;;;;17.25;9.85;;;13.10;99.90;;;;;;5085676;28;20044;-49
2022/10/27 04:14:51;;;;;;;17.15;10.68;;;13.10;99.90;;;;;;5087866;28;20377;-50
2022/10/27 04:17:17;;;;;;;14.48;10.07;;;13.00;99.90;;;;;;5085020;28;20043;-52
2022/10/27 04:19:43;;;;;;;14.95;10.20;;;13.00;99.90;;;;;;5087376;28;20107;-50
2022/10/27 04:22:08;;;;;;;14.25;11.10;;;13.00;99.90;;;;;;5083926;28;20604;-51
2022/10/27 04:24:34;;;;;;;14.95;10.52;;;13.00;99.90;;;;;;5086699;28;20039;-50
2022/10/27 04:26:59;;;;;;;12.75;10.13;;;12.90;99.90;;;;;;5087166;28;20040;-50
2022/10/27 04:29:25;;;;;;;12.10;10.27;;;12.90;99.90;;;;;;5086868;28;20040;-51
2022/10/27 04:31:51;;;;;;;21.95;11.85;;;12.80;99.90;;;;;;5087024;28;20397;-52
2022/10/27 04:34:17;;;;;;;14.13;10.57;;;12.80;99.90;;;;;;5087398;28;20091;-52
2022/10/27 04:36:42;;;;;;;14.23;10.95;;;12.70;99.90;;;;;;5084364;28;20501;-50
2022/10/27 04:39:12;;;;;;;16.27;10.65;;;12.70;99.90;;;;;;5085989;28;20537;-50
2022/10/27 04:41:38;;;;;;;15.98;10.60;;;12.70;99.90;;;;;;5085851;28;20489;-51
2022/10/27 04:44:04;;;;;;;15.93;10.07;;;12.70;99.90;;;;;;5084630;28;20126;-52
2022/10/27 04:46:30;;;;;;;14.48;10.30;;;12.70;99.90;;;;;;5086047;28;20046;-49
2022/10/27 04:48:56;;;;;;;14.90;10.73;;;12.70;99.90;;;;;;5082544;28;20056;-53
2022/10/27 04:51:21;;;;;;;15.65;10.35;;;12.70;99.90;;;;;;5085822;28;20073;-52
2022/10/27 04:53:47;;;;;;;12.27;9.18;;;12.70;99.90;;;;;;5086184;28;20568;-49
2022/10/27 04:56:13;;;;;;;13.50;10.10;;;12.70;99.90;;;;;;5087834;28;20051;-52
2022/10/27 04:58:38;;;;;;;13.55;9.65;;;12.70;99.90;;;;;;5087330;28;20044;-51
2022/10/27 05:01:08;;;;;;;13.77;10.13;;;12.80;99.90;;;;;;5087342;28;20047;-52
2022/10/27 05:03:34;;;;;;;17.35;10.73;;;12.80;99.90;;;;;;5082901;28;20040;-50
2022/10/27 05:06:00;;;;;;;14.65;9.85;;;12.70;99.90;;;;;;5088538;28;20052;-52
2022/10/27 05:08:25;;;;;;;18.60;9.35;;;12.80;99.90;;;;;;5084289;28;20048;-49
2022/10/27 05:10:51;;;;;;;14.95;9.32;;;12.80;99.90;;;;;;5085909;28;20405;-51
2022/10/27 05:13:16;;;;;;;14.55;9.50;;;12.80;99.90;;;;;;5082498;28;20044;-53
2022/10/27 05:15:42;;;;;;;12.60;9.15;;;12.90;99.90;;;;;;5086189;28;20085;-51
2022/10/27 05:18:08;;;;;;;10.82;9.10;;;12.80;99.90;;;;;;5083362;28;20047;-53
2022/10/27 05:20:33;;;;;;;14.88;8.85;;;12.90;99.90;;;;;;5086032;28;20071;-54
2022/10/27 05:22:59;;;;;;;12.52;8.75;;;12.90;99.90;;;;;;5082571;28;20068;-50
2022/10/27 05:25:24;;;;;;;13.10;9.40;;;12.90;99.90;;;;;;5086434;28;20036;-51
2022/10/27 05:27:50;;;;;;;14.88;8.55;;;12.90;99.90;;;;;;5085152;28;20039;-51
2022/10/27 05:30:16;;;;;;;15.35;9.48;;;13.00;99.90;;;;;;5087087;28;20998;-52
2022/10/27 05:32:41;;;;;;;14.20;8.35;;;13.00;99.90;;;;;;5084164;28;20496;-49
2022/10/27 05:35:08;;;;;;;12.55;8.43;;;12.90;99.90;;;;;;5085615;28;20392;-51
2022/10/27 05:37:33;;;;;;;14.07;8.88;;;13.00;99.90;;;;;;5084590;28;20044;-51
2022/10/27 05:39:59;;;;;;;13.88;8.75;;;13.00;99.90;;;;;;5083891;28;20062;-50
2022/10/27 05:42:25;;;;;;;15.82;8.52;;;12.90;99.90;;;;;;5082802;28;20051;-52
2022/10/27 05:44:51;;;;;;;12.27;8.93;;;13.00;99.90;;;;;;5086566;28;20048;-50
2022/10/27 05:47:17;;;;;;;15.93;8.63;;;12.90;99.90;;;;;;5087577;28;20036;-52
2022/10/27 05:49:42;;;;;;;12.85;8.07;;;13.00;99.90;;;;;;5083434;28;20036;-53
2022/10/27 05:52:08;;;;;;;10.32;8.23;;;13.00;99.90;;;;;;5084314;28;20028;-51
2022/10/27 05:54:34;;;;;;;14.25;8.10;;;12.90;99.90;;;;;;5084334;28;20200;-52
2022/10/27 05:56:59;;;;;;;13.80;8.45;;;12.90;99.90;;;;;;5085951;28;20040;-49
2022/10/27 05:59:25;;;;;;;13.52;8.63;;;12.80;99.90;;;;;;5085489;28;20051;-53
2022/10/27 06:01:51;;;;;;;12.20;8.38;;;12.80;99.90;;;;;;5084227;28;20415;-50
2022/10/27 06:04:16;;;;;;;14.70;8.45;;;12.80;99.90;;;;;;5085262;28;20444;-52
2022/10/27 06:06:42;;;;;;;14.98;8.70;;;12.80;99.90;;;;;;5084207;28;20040;-52
2022/10/27 06:09:07;;;;;;;12.85;9.18;;;12.70;99.90;;;;;;5085045;28;20385;-52
2022/10/27 06:11:33;;;;;;;12.43;8.98;;;12.70;99.90;;;;;;5084981;28;20443;-49
2022/10/27 06:13:59;;;;;;;12.40;9.48;;;12.80;99.90;;;;;;5081774;28;20539;-49
2022/10/27 06:16:24;;;;;;;13.40;9.63;;;12.90;99.90;;;;;;5089442;28;20043;-50
2022/10/27 06:18:52;;;;;;;15.02;9.88;;;12.80;99.90;;;;;;5090149;28;20673;-51
2022/10/27 06:21:18;;;;;;;15.75;10.00;;;12.80;99.90;;;;;;5090130;28;20051;-49
2022/10/27 06:23:46;;;;;;;11.45;9.20;;;12.80;99.90;;;;;;5091092;28;20040;-53
2022/10/27 06:26:11;;;;;;;;;;;12.90;99.90;;;;;;5091744;28;20035;-50
2022/10/27 06:28:37;;;;;;;13.23;9.48;;;12.90;99.90;;;;;;5089096;28;19931;-53
2022/10/27 06:31:03;;;;;;;14.00;9.82;;;12.90;99.90;;;;;;5087821;28;20036;-49
2022/10/27 06:33:28;;;;;;;16.85;10.38;;;12.90;99.90;;;;;;5089757;28;20612;-52
2022/10/27 06:35:54;;;;;;;13.30;10.57;;;12.90;99.90;;;;;;5093208;28;20043;-53
2022/10/27 06:38:19;;;;;;;13.20;9.68;;;12.90;99.90;;;;;;5091249;28;20079;-52
2022/10/27 06:40:45;;;;;;;15.63;10.25;;;13.00;99.90;;;;;;5091207;28;20052;-50
2022/10/27 06:43:12;;;;;;;14.10;9.65;;;12.90;99.90;;;;;;5087214;28;20079;-52
2022/10/27 06:45:38;;;;;;;12.75;10.00;;;13.00;99.90;;;;;;5089003;28;20244;-52
2022/10/27 06:48:07;;;;;;;14.40;10.27;;;13.00;99.90;;;;;;5092884;28;20088;-50
2022/10/27 06:50:33;;;;;;;12.38;10.52;;;13.00;99.90;;;;;;5091617;28;20032;-49
2022/10/27 06:53:00;;;;;;;12.82;9.40;;;13.00;99.90;;;;;;5088015;28;20032;-50
2022/10/27 06:55:26;;;;;;;15.83;10.30;;;13.00;99.90;;;;;;5091568;28;20401;-49
2022/10/27 06:57:51;;;;;;;14.00;9.93;;;13.00;99.90;;;;;;5091220;28;20043;-52
2022/10/27 07:00:17;;;;;;;13.80;9.43;;;13.00;99.90;;;;;;5087468;28;20036;-50
2022/10/27 07:02:43;;;;;;;13.95;9.98;;;13.10;99.90;;;;;;5092681;28;20075;-53
2022/10/27 07:05:09;;;;;;;16.17;10.13;;;13.20;99.90;;;;;;5093257;28;20481;-49
2022/10/27 07:07:35;;;;;;;15.80;9.90;;;13.20;99.90;;;;;;5085203;28;20106;-51
2022/10/27 07:10:01;;;;;;;14.30;9.73;;;13.20;99.90;;;;;;5089254;28;20231;-54
2022/10/27 07:12:27;;;;;;;16.88;10.18;;;13.30;99.90;;;;;;5091109;28;20107;-51
2022/10/27 07:14:52;;;;;;;14.55;9.32;;;13.40;99.90;;;;;;5090845;28;20744;-50
2022/10/27 07:17:18;;;;;;;15.10;9.90;;;13.50;99.90;;;;;;5090672;28;20047;-50
2022/10/27 07:19:43;;;;;;;18.80;9.90;;;13.50;99.90;;;;;;5090312;28;20511;-50
2022/10/27 07:22:09;;;;;;;13.90;9.63;;;13.60;99.90;;;;;;5090844;28;20120;-52
2022/10/27 07:24:35;;;;;;;17.33;10.18;;;13.70;99.90;;;;;;5091698;28;20195;-51
2022/10/27 07:27:00;;;;;;;14.23;10.25;;;13.80;99.90;;;;;;5089789;28;20035;-51
2022/10/27 07:29:26;;;;;;;13.88;9.50;;;13.80;99.90;;;;;;5085999;28;20071;-52
2022/10/27 07:31:52;;;;;;;15.77;9.98;;;13.90;99.90;;;;;;5084966;28;20036;-49
2022/10/27 07:34:19;;;;;;;17.73;9.40;;;14.00;99.90;;;;;;5082941;28;20060;-50
2022/10/27 07:36:45;;;;;;;11.95;9.60;;;14.10;99.90;;;;;;5085533;28;20106;-51
2022/10/27 07:39:10;;;;;;;13.23;9.40;;;14.20;99.90;;;;;;5082649;28;20040;-51
2022/10/27 07:41:36;;;;;;;13.68;9.27;;;14.20;99.90;;;;;;5089432;28;20115;-50
2022/10/27 07:44:02;;;;;;;12.07;8.68;;;14.30;99.90;;;;;;5089185;28;20044;-52
2022/10/27 07:46:28;;;;;;;15.10;9.23;;;14.40;99.90;;;;;;5091017;28;20044;-49
2022/10/27 07:48:54;;;;;;;16.10;9.20;;;14.40;99.90;;;;;;5087467;28;20044;-52
2022/10/27 07:51:19;;;;;;;12.05;9.43;;;14.40;99.90;;;;;;5091596;28;20562;-51
2022/10/27 07:53:45;;;;;;;11.65;8.95;;;14.40;99.90;;;;;;5092495;28;20044;-50
2022/10/27 07:56:10;;;;;;;11.43;9.15;;;14.40;99.90;;;;;;5091749;28;20036;-52
2022/10/27 07:58:36;;;;;;;13.27;9.15;;;14.40;99.90;;;;;;5089775;28;20036;-49
2022/10/27 08:01:03;;;;;;;14.27;8.70;;;14.50;99.90;;;;;;5088839;28;20085;-51
2022/10/27 08:03:30;;;;;;;11.70;8.50;;;14.50;99.90;;;;;;5085151;28;20117;-51
2022/10/27 08:06:01;;;;;;;13.02;9.05;;;;;;;;;;5090107;28;20047;-50
2022/10/27 08:08:27;;;;;;;13.80;8.07;;;14.70;99.90;;;;;;5083471;28;20106;-50
2022/10/27 08:10:53;;;;;;;12.73;8.30;;;14.70;99.90;;;;;;5090335;28;20427;-50
2022/10/27 08:13:18;;;;;;;14.20;8.38;;;14.80;99.90;;;;;;5090310;28;20051;-54
2022/10/27 08:15:44;;;;;;;9.98;7.90;;;14.90;99.90;;;;;;5090921;28;20084;-51
2022/10/27 08:18:11;;;;;;;12.63;8.13;;;15.00;99.90;;;;;;5086144;28;20032;-52
2022/10/27 08:20:41;;;;;;;10.07;7.97;;;15.10;99.90;;;;;;5088158;28;20044;-53
2022/10/27 08:23:11;;;;;;;10.10;7.40;;;15.10;99.90;;;;;;5080400;28;20044;-52
2022/10/27 08:25:37;;;;;;;10.27;7.63;;;15.20;99.90;;;;;;5088838;28;20043;-49
2022/10/27 08:28:03;;;;;;;10.85;7.45;;;15.30;99.90;;;;;;5091255;28;20046;-48
2022/10/27 08:30:31;;;;;;;9.65;7.15;;;15.40;99.90;;;;;;5090511;28;20039;-49
2022/10/27 08:32:58;;;;;;;;;;;15.50;99.90;;;;;;5090644;28;20063;-51
2022/10/27 08:35:26;;;;;;;13.45;7.43;;;15.50;99.90;;;;;;5086798;28;19924;-52
2022/10/27 08:37:59;;;;;;;11.25;7.28;;;15.50;99.90;;;;;;5091631;28;20036;-54
2022/10/27 08:40:34;;;;;;;11.68;7.28;;;15.40;99.90;;;;;;5087706;28;20153;-51
2022/10/27 08:43:13;;;;;;;10.73;6.80;;;15.40;99.90;;;;;;5088569;28;20040;-51
2022/10/27 08:45:49;;;;;;;10.85;6.68;;;15.40;99.90;;;;;;5086391;28;20055;-53
2022/10/27 08:48:23;;;;;;;10.70;6.45;;;15.40;99.90;;;;;;5087549;28;20170;-50
2022/10/27 08:50:49;;;;;;;10.80;6.50;;;15.40;99.90;;;;;;5087884;28;20052;-52
2022/10/27 08:53:22;;;;;;;8.50;6.15;;;15.40;99.90;;;;;;5091215;28;20396;-49
2022/10/27 08:55:48;;;;;;;12.52;6.22;;;15.40;99.90;;;;;;5088381;28;20085;-50
2022/10/27 08:58:18;;;;;;;8.55;5.80;;;15.40;99.90;;;;;;5089772;28;20060;-52
2022/10/27 09:01:08;;;;;;;10.45;5.93;;;15.40;99.90;;;;;;5090237;28;20036;-50
2022/10/27 09:04:11;;;;;;;8.43;5.35;;;15.50;99.90;;;;;;5090620;28;20036;-49
2022/10/27 09:06:59;;;;;;;9.18;5.70;;;15.60;99.90;;;;;;5082927;28;20089;-50
2022/10/27 09:09:39;;;;;;;9.82;5.35;;;15.70;99.90;;;;;;5085105;28;20047;-50
2022/10/27 09:12:28;;;;;;;9.82;5.13;;;16.00;99.90;;;;;;5083775;28;20056;-51
2022/10/27 09:14:56;;;;;;;8.15;4.65;;;16.20;99.90;;;;;;5076134;28;20170;-52
2022/10/27 09:17:28;;;;;;;7.70;4.32;;;16.40;99.90;;;;;;5100503;28;20047;-50
2022/10/27 09:20:00;;;;;;;6.03;3.20;;;16.50;99.90;;;;;;5086930;28;20062;-52
2022/10/27 09:22:28;;;;;;;4.22;2.45;;;16.70;99.90;;;;;;5085850;28;20048;-51
2022/10/27 09:25:01;;;;;;;6.20;2.22;;;17.00;99.90;;;;;;5088689;28;20040;-51
2022/10/27 09:27:27;;;;;;;6.35;2.20;;;17.10;99.90;;;;;;5084998;28;20059;-51
2022/10/27 09:29:57;;;;;;;3.50;1.83;;;17.20;99.90;;;;;;5087302;28;20036;-49
2022/10/27 09:32:25;;;;;;;5.97;2.08;;;17.30;99.90;;;;;;5087940;28;20048;-50
2022/10/27 09:35:05;;;;;;;4.53;1.95;;;17.40;99.90;;;;;;5088583;28;20047;-50
2022/10/27 09:37:32;;;;;;;4.60;2.28;;;17.50;99.90;;;;;;5083194;28;20051;-49
2022/10/27 09:39:58;;;;;;;7.30;2.40;;;17.60;99.90;;;;;;5085608;28;20040;-50
2022/10/27 09:42:29;;;;;;;6.22;2.10;;;17.70;99.90;;;;;;5085499;28;20044;-49
2022/10/27 09:44:59;;;;;;;6.15;2.03;;;17.80;99.90;;;;;;5084666;28;20040;-51
2022/10/27 09:47:29;;;;;;;4.70;1.80;;;17.80;99.90;;;;;;5081625;28;20040;-53
2022/10/27 09:49:56;;;;;;;5.68;1.95;;;17.90;99.90;;;;;;5084407;28;20155;-51
2022/10/27 09:52:32;;;;;;;;;;;18.10;99.90;;;;;;5083300;28;20032;-49
2022/10/27 09:54:58;;;;;;;3.55;1.75;;;18.20;99.90;;;;;;5081856;28;19925;-52
2022/10/27 09:57:27;;;;;;;6.72;1.70;;;18.40;99.90;;;;;;5085685;28;20040;-50
2022/10/27 10:00:05;;;;;;;5.68;1.92;;;18.40;99.90;;;;;;5087744;28;20067;-54
2022/10/27 10:02:52;;;;;;;6.93;2.05;;;18.50;99.90;;;;;;5089269;28;20119;-53
2022/10/27 10:05:23;;;;;;;;;;;18.60;99.90;;;;;;5075234;28;20050;-53
2022/10/27 10:07:49;;;;;;;2.55;1.58;;;18.60;99.90;;;;;;5083750;28;20446;-50
2022/10/27 10:10:28;;;;;;;7.68;1.95;;;18.70;99.90;;;;;;5083365;28;20047;-49
2022/10/27 10:13:05;;;;;;;3.17;1.42;;;18.70;99.90;;;;;;5086921;28;20092;-52
2022/10/27 10:15:37;;;;;;;4.07;1.95;;;18.80;99.90;;;;;;5087440;28;20051;-53
2022/10/27 10:18:14;;;;;;;5.53;1.60;;;18.90;99.90;;;;;;5086611;28;20100;-49
2022/10/27 10:20:42;;;;;;;3.35;1.50;;;19.00;99.90;;;;;;5086883;28;20457;-51
2022/10/27 10:23:29;;;;;;;6.05;1.40;;;19.10;99.90;;;;;;5084830;28;20044;-50
2022/10/27 10:25:56;;;;;;;;;;;19.10;99.90;;;;;;5088130;28;20040;-50
2022/10/27 10:28:33;;;;;;;;;;;19.20;99.90;;;;;;5084836;28;19923;-49
2022/10/27 10:31:01;;;;;;;3.10;1.55;;;19.30;99.90;;;;;;5085655;28;20015;-50
2022/10/27 10:33:47;;;;;;;3.85;1.60;;;19.40;99.90;;;;;;5084168;28;20144;-54
2022/10/27 10:36:15;;;;;;;6.90;1.60;;;19.50;99.90;;;;;;5088976;28;20199;-51
2022/10/27 10:38:52;;;;;;;5.43;1.60;;;19.70;99.90;;;;;;5089412;28;20047;-49
2022/10/27 10:41:20;;;;;;;4.88;1.52;;;19.80;99.90;;;;;;5092249;28;20386;-52
2022/10/27 10:43:46;;;;;;;8.70;1.75;;;19.80;99.90;;;;;;5090522;28;20119;-52
2022/10/27 10:46:23;;;;;;;4.95;1.80;;;19.70;99.90;;;;;;5089110;28;20115;-52
2022/10/27 10:48:57;;;;;;;4.00;1.60;;;19.70;99.90;;;;;;5088226;28;20036;-50
2022/10/27 10:51:28;;;;;;;3.28;1.45;;;19.70;99.90;;;;;;5090127;28;20040;-50
2022/10/27 10:54:07;;;;;;;5.40;1.40;;;19.80;99.90;;;;;;5090040;28;20474;-52
2022/10/27 10:56:35;;;;;;;5.03;1.40;;;19.70;99.90;;;;;;5089404;28;20051;-49
2022/10/27 10:59:09;;;;;;;4.72;1.70;;;19.80;99.90;;;;;;5090428;28;20052;-53
2022/10/27 11:01:47;;;;;;;3.67;1.65;;;19.70;99.90;;;;;;5106147;28;20079;-49
2022/10/27 11:04:17;;;;;;;6.45;2.10;;;19.70;99.90;;;;;;5095502;28;20048;-49
2022/10/27 11:07:11;;;;;;;6.32;2.53;;;19.70;99.90;;;;;;5091270;28;20078;-51
2022/10/27 11:10:08;;;;;;;5.97;1.80;;;19.60;99.90;;;;;;5072862;28;20085;-51
2022/10/27 11:12:53;;;;;;;4.50;1.70;;;19.60;99.90;;;;;;5087809;28;20105;-50
2022/10/27 11:16:06;;;;;;;4.60;1.70;;;19.70;99.90;;;;;;5086184;28;20075;-50
2022/10/27 11:18:49;;;;;;;5.00;1.30;;;19.80;99.90;;;;;;5006567;28;20077;-53
2022/10/27 11:21:28;;;;;;;2.90;1.20;;;19.90;99.90;;;;;;4976556;28;20045;-52
2022/10/27 11:24:17;;;;;;;5.07;1.30;;;19.90;99.90;;;;;;5008336;28;20065;-52
2022/10/27 11:26:54;;;;;;;3.10;1.30;;;20.00;99.90;;;;;;5006345;28;20053;-49
2022/10/27 11:29:40;;;;;;;6.53;1.90;;;19.90;99.90;;;;;;5009445;28;20060;-50
2022/10/27 11:32:25;;;;;;;6.22;1.80;;;19.90;99.90;;;;;;5007801;28;20116;-52
2022/10/27 11:35:43;;;;;;;7.68;1.45;;;19.80;99.90;;;;;;4992951;28;20107;-52
2022/10/27 11:38:15;;;;;;;3.50;1.67;;;19.90;99.90;;;;;;4979071;28;20042;-49
2022/10/27 11:41:20;;;;;;;5.22;1.70;;;19.80;99.90;;;;;;5009282;28;20045;-53
2022/10/27 11:44:22;;;;;;;3.00;1.52;;;19.80;99.90;;;;;;4936925;29;20056;-50
2022/10/27 11:47:15;;;;;;;3.80;1.30;;;19.80;99.90;;;;;;4935663;29;20052;-51
2022/10/27 11:49:53;;;;;;;3.55;1.60;;;19.80;99.90;;;;;;4943275;28;20046;-52
2022/10/27 11:52:22;;;;;;;3.20;1.70;;;19.80;99.90;;;;;;4968756;28;20093;-49
2022/10/27 11:54:48;;;;;;;4.95;1.88;;;19.70;99.90;;;;;;4965726;28;20140;-49
2022/10/27 11:57:28;;;;;;;4.22;2.28;;;19.70;99.90;;;;;;4965109;28;20077;-52
2022/10/27 12:00:05;;;;;;;3.95;2.08;;;19.70;99.90;;;;;;4965544;28;20137;-59
2022/10/27 12:02:52;;;;;;;2.47;1.50;;;19.70;99.90;;;;;;4965790;28;20073;-57
2022/10/27 12:05:30;;;;;;;6.15;1.92;;;19.60;99.90;;;;;;4963277;28;20038;-59
2022/10/27 12:08:09;;;;;;;6.72;2.38;;;19.60;99.90;;;;;;4965210;28;20091;-56
2022/10/27 12:10:53;;;;;;;4.35;2.25;;;19.70;99.90;;;;;;4968850;28;20101;-58
2022/10/27 12:13:49;;;;;;;2.95;2.00;;;19.60;99.90;;;;;;4965978;28;20050;-58
2022/10/27 12:16:20;;;;;;;3.42;2.00;;;19.60;99.90;;;;;;4968784;28;20109;-58
2022/10/27 12:19:20;;;;;;;3.88;1.98;;;19.70;99.90;;;;;;4979433;28;20045;-58
2022/10/27 12:21:50;;;;;;;5.18;1.75;;;19.70;99.90;;;;;;5023891;28;20562;-58
2022/10/27 12:24:26;;;;;;;3.72;1.70;;;19.80;99.90;;;;;;5024278;28;20144;-58
2022/10/27 12:26:59;;;;;;;2.47;2.08;;;19.80;99.90;;;;;;5056438;28;20539;-58
2022/10/27 12:29:41;;;;;;;3.95;1.92;;;19.90;99.90;;;;;;5085682;28;20138;-59
2022/10/27 12:32:13;;;;;;;3.25;1.75;;;20.00;99.90;;;;;;5085135;28;20040;-58
2022/10/27 12:35:10;;;;;;;5.00;2.00;;;20.20;99.90;;;;;;5085228;28;20036;-59
2022/10/27 12:37:51;;;;;;;;;;;20.20;99.90;;;;;;5063248;28;20079;-59
2022/10/27 12:40:23;;;;;;;7.22;2.17;;;20.30;99.90;;;;;;5085037;28;19927;-57
2022/10/27 12:43:00;;;;;;;4.15;1.48;;;20.40;99.90;;;;;;5084822;28;20048;-59
2022/10/27 12:45:38;;;;;;;2.38;1.40;;;20.40;99.90;;;;;;5085726;28;20527;-58
2022/10/27 12:48:25;;;;;;;5.60;1.90;;;20.30;99.90;;;;;;5082464;28;20048;-57
2022/10/27 12:51:01;;;;;;;6.82;1.83;;;20.30;99.90;;;;;;5083168;28;20124;-59
2022/10/27 12:53:47;;;;;;;6.57;1.60;;;20.30;99.90;;;;;;5086544;28;20054;-57
2022/10/27 12:56:25;;;;;;;5.28;1.50;;;20.30;99.90;;;;;;5088123;28;20055;-58
2022/10/27 12:59:32;;;;;;;4.72;1.45;;;20.30;99.90;;;;;;5083285;28;20093;-58
2022/10/27 13:02:11;;;;;;;3.47;1.40;;;;;;;;;;5083748;28;21239;-59
2022/10/27 13:05:05;;;;;;;3.15;1.30;;;20.30;99.90;;;;;;4590295;22;20048;-59